Time;durP1;ratioP1;P1;durP2;ratioP2;P2;SDS_P1;SDS_P2;PMS_P1;PMS_P2;Temp;Humidity;BMP_temperature;BMP_pressure;BME280_temperature;BME280_humidity;BME280_pressure;Samples;Min_cycle;Max_cycle;Signal;HPM_P1;HPM_P2
2022/07/26 00:00:17;;;;;;;0.20;0.20;;;27.80;52.40;;;28.44;38.40;94400.31;5010909;28;20207;-78
2022/07/26 00:02:45;;;;;;;0.30;0.30;;;27.80;52.70;;;28.36;38.75;94395.72;5022009;28;20213;-79
2022/07/26 00:05:15;;;;;;;0.25;0.25;;;27.70;53.00;;;28.33;38.73;94407.16;5030338;28;20251;-78
2022/07/26 00:07:44;;;;;;;0.20;0.20;;;27.70;53.10;;;28.18;38.89;94389.50;5014408;28;20193;-78
2022/07/26 00:10:12;;;;;;;0.30;0.30;;;27.60;54.40;;;28.19;39.29;94398.41;5008538;28;20209;-78
2022/07/26 00:12:39;;;;;;;0.30;0.30;;;27.60;53.30;;;28.12;39.31;94404.25;5010960;28;20658;-78
2022/07/26 00:15:10;;;;;;;0.30;0.30;;;27.50;53.40;;;28.07;39.69;94412.50;4995425;28;20204;-78
2022/07/26 00:17:38;;;;;;;0.30;0.30;;;27.50;53.80;;;28.00;39.38;94406.75;5030987;28;20230;-78
2022/07/26 00:20:06;;;;;;;0.30;0.30;;;27.40;53.60;;;27.93;39.59;94408.03;5031814;28;20200;-77
2022/07/26 00:22:34;;;;;;;0.30;0.30;;;27.30;53.70;;;27.95;39.32;94418.47;5033179;28;20539;-78
2022/07/26 00:25:07;;;;;;;0.40;0.40;;;27.30;53.80;;;27.91;39.96;94420.22;5023317;28;20293;-78
2022/07/26 00:27:36;;;;;;;0.30;0.30;;;27.20;54.00;;;27.89;39.77;94423.25;5001949;28;20292;-79
2022/07/26 00:30:10;;;;;;;0.40;0.40;;;27.20;55.30;;;27.83;40.00;94429.09;5015737;28;20206;-79
2022/07/26 00:32:37;;;;;;;0.30;0.30;;;27.20;54.30;;;27.84;40.23;94430.66;5018141;28;20210;-78
2022/07/26 00:35:05;;;;;;;0.30;0.30;;;27.20;54.50;;;27.84;40.75;94447.63;5034117;28;20204;-79
2022/07/26 00:37:33;;;;;;;0.30;0.30;;;27.20;54.90;;;27.84;41.33;94469.19;5033705;28;20766;-78
2022/07/26 00:40:00;;;;;;;0.30;0.30;;;27.20;55.20;;;27.80;41.25;94465.53;5027563;28;20562;-79
2022/07/26 00:42:27;;;;;;;0.30;0.30;;;27.20;55.20;;;27.83;41.60;94508.03;5014208;28;20294;-79
2022/07/26 00:44:55;;;;;;;0.30;0.30;;;27.20;55.30;;;27.78;41.93;94500.88;5017364;28;20671;-79
2022/07/26 00:47:22;;;;;;;0.30;0.30;;;27.20;55.80;;;27.72;41.68;94515.59;5017445;28;20220;-78
2022/07/26 00:49:49;;;;;;;0.30;0.30;;;27.20;55.80;;;27.65;42.72;94520.66;5017156;28;20209;-78
2022/07/26 00:52:17;;;;;;;0.22;0.22;;;27.20;56.20;;;27.56;41.90;94522.50;5033914;28;20558;-78
2022/07/26 00:54:45;;;;;;;0.30;0.30;;;27.10;56.10;;;27.47;43.42;94522.47;5017271;28;20199;-79
2022/07/26 00:57:13;;;;;;;0.30;0.30;;;27.00;56.60;;;27.33;43.66;94530.56;5033507;28;20253;-78
2022/07/26 00:59:41;;;;;;;0.30;0.30;;;27.00;57.70;;;27.18;44.08;94531.75;4997827;28;20195;-78
2022/07/26 01:02:09;;;;;;;0.30;0.30;;;26.90;57.90;;;26.99;46.28;94542.72;5033460;28;20713;-78
2022/07/26 01:04:38;;;;;;;0.30;0.30;;;26.70;59.30;;;26.77;46.21;94546.97;5033515;28;20194;-78
2022/07/26 01:07:06;;;;;;;0.40;0.40;;;26.60;59.60;;;26.60;46.83;94547.59;5012425;28;20231;-78
2022/07/26 01:09:42;;;;;;;0.30;0.30;;;26.50;60.10;;;26.42;47.33;94554.69;5013610;28;20607;-78
2022/07/26 01:12:09;;;;;;;0.40;0.40;;;26.30;60.30;;;26.24;48.17;94563.69;5012672;28;20217;-78
2022/07/26 01:14:37;;;;;;;0.30;0.30;;;26.20;60.90;;;26.04;50.00;94561.06;5016389;28;20205;-78
2022/07/26 01:17:04;;;;;;;0.28;0.28;;;26.10;62.20;;;25.82;49.85;94579.78;5016624;28;20250;-79
2022/07/26 01:19:31;;;;;;;0.40;0.40;;;25.80;62.40;;;25.50;52.35;94567.94;5015107;28;20239;-78
2022/07/26 01:21:58;;;;;;;0.50;0.50;;;25.60;63.40;;;25.18;53.96;94573.03;5013122;28;20574;-78
2022/07/26 01:24:25;;;;;;;0.40;0.40;;;25.30;63.80;;;24.88;52.96;94572.38;4997182;28;20239;-78
2022/07/26 01:26:54;;;;;;;0.30;0.30;;;25.00;65.20;;;24.59;54.49;94584.00;4999805;28;20239;-78
2022/07/26 01:29:23;;;;;;;0.40;0.40;;;24.70;66.00;;;24.32;56.35;94575.81;5011869;28;20246;-77
2022/07/26 01:32:02;;;;;;;0.35;0.35;;;24.50;67.10;;;24.04;56.73;94572.91;5033202;28;20212;-78
2022/07/26 01:34:30;;;;;;;0.38;0.38;;;24.20;68.00;;;23.78;58.85;94575.84;5016607;28;20215;-78
2022/07/26 01:36:57;;;;;;;0.32;0.32;;;23.90;69.80;;;23.47;60.55;94576.94;5016439;28;20235;-78
2022/07/26 01:39:25;;;;;;;0.30;0.30;;;23.70;70.50;;;23.25;59.33;94572.03;5025313;28;20199;-79
2022/07/26 01:41:53;;;;;;;0.30;0.30;;;23.40;70.10;;;23.05;62.27;94569.50;4999033;28;20219;-79
2022/07/26 01:44:21;;;;;;;0.35;0.35;;;23.20;71.50;;;22.92;61.94;94585.09;5022342;28;20216;-79
2022/07/26 01:46:49;;;;;;;0.40;0.40;;;23.00;71.90;;;22.79;62.96;94591.03;5005147;28;20227;-79
2022/07/26 01:49:16;;;;;;;0.50;0.50;;;22.80;73.30;;;22.64;63.89;94606.13;5028891;28;20195;-79
2022/07/26 01:51:43;;;;;;;0.45;0.45;;;22.70;73.50;;;22.53;64.68;94602.69;5032571;28;20632;-78
2022/07/26 01:54:11;;;;;;;0.30;0.30;;;22.50;74.20;;;22.45;63.58;94611.28;5012536;28;20208;-79
2022/07/26 01:56:38;;;;;;;0.40;0.40;;;22.40;74.40;;;22.42;62.51;94611.81;5012151;28;20220;-78
2022/07/26 01:59:06;;;;;;;0.40;0.40;;;22.30;75.00;;;22.34;63.54;94615.84;5012583;28;20217;-79
2022/07/26 02:01:33;;;;;;;0.40;0.40;;;22.10;75.30;;;22.31;64.14;94627.06;5014127;28;20225;-79
2022/07/26 02:04:57;;;;;;;0.40;0.40;;;22.10;75.50;;;22.27;65.00;94636.69;5004104;28;20202;-79
2022/07/26 02:06:54;;;;;;;0.40;0.40;;;22.00;75.60;;;22.19;64.67;94640.75;5018461;28;20600;-79
2022/07/26 02:09:22;;;;;;;0.45;0.45;;;22.00;76.00;;;22.17;64.86;94621.50;5015167;28;20297;-79
2022/07/26 02:11:51;;;;;;;0.35;0.35;;;21.90;76.50;;;22.13;64.42;94636.50;4996560;28;20225;-79
2022/07/26 02:14:18;;;;;;;0.40;0.40;;;21.80;76.60;;;22.10;65.06;94636.22;5016067;28;20279;-79
2022/07/26 02:16:58;;;;;;;0.40;0.40;;;21.80;76.80;;;22.06;64.45;94627.97;5032029;28;20233;-79
2022/07/26 02:19:28;;;;;;;0.40;0.40;;;21.70;76.70;;;22.03;64.44;94640.00;5032270;28;20298;-79
2022/07/26 02:21:55;;;;;;;0.40;0.40;;;21.70;77.00;;;22.01;64.96;94641.34;5014890;28;20221;-79
2022/07/26 02:24:27;;;;;;;0.40;0.40;;;21.70;77.20;;;21.97;64.20;94637.59;5015793;28;20211;-79
2022/07/26 02:26:56;;;;;;;0.50;0.50;;;21.60;77.00;;;21.91;64.34;94639.47;5032236;28;20616;-79
2022/07/26 02:29:25;;;;;;;0.43;0.43;;;21.60;77.40;;;21.91;63.90;94652.84;5015096;28;20281;-78
2022/07/26 02:31:53;;;;;;;0.50;0.50;;;21.50;77.30;;;21.89;64.71;94649.63;5002790;28;20231;-79
2022/07/26 02:34:20;;;;;;;0.30;0.30;;;21.50;77.50;;;21.88;64.30;94654.16;4995255;28;20216;-78
2022/07/26 02:36:47;;;;;;;0.30;0.30;;;21.50;78.20;;;21.85;64.34;94653.88;5011135;28;20567;-79
2022/07/26 02:39:15;;;;;;;0.38;0.38;;;21.40;77.90;;;21.82;64.06;94657.09;5012149;28;20641;-79
2022/07/26 02:41:42;;;;;;;0.40;0.40;;;21.30;77.90;;;21.78;64.44;94654.19;5003472;28;20306;-78
2022/07/26 02:44:09;;;;;;;0.38;0.38;;;21.30;77.90;;;21.74;64.58;94661.91;5014649;28;20207;-79
2022/07/26 02:46:37;;;;;;;0.40;0.40;;;21.30;78.00;;;21.68;64.11;94648.81;5031406;28;20224;-79
2022/07/26 02:49:05;;;;;;;0.30;0.30;;;21.30;78.20;;;21.71;64.64;94653.66;5030592;28;20235;-80
2022/07/26 02:51:32;;;;;;;0.40;0.40;;;21.20;77.90;;;21.63;64.24;94648.84;5020332;28;20276;-79
2022/07/26 02:53:59;;;;;;;0.40;0.40;;;21.30;78.00;;;21.67;64.37;94653.38;5030795;28;20502;-79
2022/07/26 02:56:27;;;;;;;0.40;0.40;;;21.20;77.90;;;21.64;64.18;94664.59;5031202;28;20249;-79
2022/07/26 02:58:55;;;;;;;0.50;0.50;;;21.20;77.80;;;21.67;64.09;94665.94;5029928;28;20193;-80
2022/07/26 03:01:22;;;;;;;0.40;0.40;;;21.20;78.10;;;21.67;64.25;94663.28;5010206;28;20216;-79
2022/07/26 03:03:50;;;;;;;0.30;0.30;;;21.10;77.90;;;21.68;63.83;94675.53;5011603;28;20239;-79
2022/07/26 03:06:18;;;;;;;0.40;0.40;;;21.20;78.00;;;21.67;63.76;94666.72;4995611;28;20229;-79
2022/07/26 03:08:47;;;;;;;0.30;0.30;;;21.20;77.90;;;21.69;63.57;94656.59;5000196;28;20235;-79
2022/07/26 03:11:14;;;;;;;0.30;0.30;;;21.20;78.00;;;21.70;63.56;94665.38;5011583;28;20253;-78
2022/07/26 03:13:42;;;;;;;0.30;0.30;;;21.10;77.90;;;21.69;63.84;94666.44;5027449;28;20255;-79
2022/07/26 03:16:10;;;;;;;0.30;0.30;;;21.10;77.70;;;21.69;63.01;94661.13;5015345;28;20250;-79
2022/07/26 03:18:37;;;;;;;0.30;0.30;;;21.10;77.90;;;21.67;63.30;94658.72;5028007;28;20224;-78
2022/07/26 03:21:05;;;;;;;0.40;0.40;;;21.10;77.90;;;21.69;63.87;94661.13;4998689;28;20221;-79
2022/07/26 03:23:33;;;;;;;0.40;0.40;;;21.10;78.00;;;21.71;63.34;94665.09;5028725;28;20212;-79
2022/07/26 03:26:04;;;;;;;0.40;0.40;;;21.10;77.90;;;21.68;63.41;94662.19;5014778;28;20277;-79
2022/07/26 03:28:34;;;;;;;0.40;0.40;;;21.10;77.90;;;21.71;63.63;94667.00;5008773;28;20250;-79
2022/07/26 03:31:02;;;;;;;0.45;0.45;;;21.20;77.90;;;21.72;63.69;94664.03;4988917;28;20226;-79
2022/07/26 03:33:29;;;;;;;0.40;0.40;;;21.20;77.90;;;21.71;63.57;94667.00;5011356;28;20202;-79
2022/07/26 03:35:56;;;;;;;0.40;0.40;;;21.20;77.80;;;21.73;63.37;94667.53;5012954;28;20234;-79
2022/07/26 03:38:24;;;;;;;0.30;0.30;;;21.20;77.80;;;21.75;63.21;94670.72;5011036;28;20541;-78
2022/07/26 03:40:52;;;;;;;0.40;0.40;;;21.20;77.80;;;21.74;63.51;94658.47;5001403;28;20315;-79
2022/07/26 03:43:19;;;;;;;0.40;0.40;;;21.20;77.70;;;21.77;63.05;94665.91;5012259;28;20193;-78
2022/07/26 03:45:50;;;;;;;0.35;0.35;;;21.20;77.50;;;21.72;63.33;94658.72;4994425;28;20226;-79
2022/07/26 03:48:21;;;;;;;0.30;0.30;;;21.20;77.50;;;21.72;62.78;94661.38;5011352;28;20601;-79
2022/07/26 03:50:48;;;;;;;0.50;0.50;;;21.20;77.40;;;21.73;63.19;94664.88;5013217;28;20236;-78
2022/07/26 03:53:15;;;;;;;0.40;0.40;;;21.20;77.40;;;21.67;62.67;94661.38;5010634;28;20673;-78
2022/07/26 03:58:28;;;;;;;0.30;0.30;;;21.20;77.40;;;21.57;63.33;94680.09;5015155;28;20223;-79
2022/07/26 04:00:55;;;;;;;0.40;0.40;;;21.10;77.40;;;21.49;63.30;94669.91;5018632;28;20224;-79
2022/07/26 04:03:23;;;;;;;0.47;0.47;;;21.10;77.50;;;21.43;64.32;94675.25;5020856;28;20197;-78
2022/07/26 04:05:51;;;;;;;0.30;0.30;;;21.00;77.50;;;21.36;64.19;94679.22;5013882;28;20224;-79
2022/07/26 04:08:18;;;;;;;0.40;0.40;;;21.00;77.90;;;21.26;64.33;94670.16;4996610;28;20227;-78
2022/07/26 04:10:50;;;;;;;0.30;0.30;;;20.90;78.00;;;21.20;64.83;94681.06;5011827;28;20208;-78
2022/07/26 04:13:19;;;;;;;0.40;0.40;;;20.90;78.20;;;21.15;65.03;94679.19;4996853;28;20201;-79
2022/07/26 04:15:46;;;;;;;0.30;0.30;;;20.80;78.50;;;21.08;65.55;94675.97;4996906;28;20232;-79
2022/07/26 04:18:13;;;;;;;0.30;0.30;;;20.80;78.70;;;21.06;65.31;94678.13;5015430;28;20617;-79
2022/07/26 04:20:41;;;;;;;0.35;0.35;;;20.70;78.80;;;21.04;65.60;94669.59;5019584;28;20220;-79
2022/07/26 04:23:09;;;;;;;0.50;0.50;;;20.70;79.00;;;21.05;65.62;94677.31;4982116;28;20197;-79
2022/07/26 04:25:39;;;;;;;0.30;0.30;;;20.70;79.20;;;21.08;66.02;94678.66;5015986;28;20274;-78
2022/07/26 04:28:08;;;;;;;0.30;0.30;;;20.70;79.50;;;21.10;65.83;94680.00;4982281;28;20319;-79
2022/07/26 04:30:36;;;;;;;0.40;0.40;;;20.60;79.50;;;21.11;65.94;94683.47;5027708;28;20216;-79
2022/07/26 04:33:04;;;;;;;0.40;0.40;;;20.70;79.60;;;21.11;65.66;94681.59;5014191;28;20679;-80
2022/07/26 04:35:31;;;;;;;0.30;0.30;;;20.60;79.60;;;21.13;65.84;94685.84;4997602;28;20316;-80
2022/07/26 04:37:59;;;;;;;0.40;0.40;;;20.70;79.80;;;21.16;65.58;94680.00;5014365;28;20308;-80
2022/07/26 04:40:27;;;;;;;0.40;0.40;;;20.70;79.80;;;21.16;65.79;94686.13;5014421;28;20216;-79
2022/07/26 04:42:55;;;;;;;0.30;0.30;;;20.70;79.90;;;21.18;66.39;94683.19;5013917;28;20204;-81
2022/07/26 04:45:22;;;;;;;0.40;0.40;;;20.70;79.90;;;21.20;65.94;94689.91;4996966;28;20212;-80
2022/07/26 04:47:50;;;;;;;0.40;0.40;;;20.70;80.00;;;21.23;66.31;94686.69;5013887;28;20229;-79
2022/07/26 04:50:22;;;;;;;0.30;0.30;;;20.80;80.00;;;21.26;66.27;94688.03;5006371;28;20207;-81
2022/07/26 04:52:51;;;;;;;0.40;0.40;;;20.80;80.20;;;21.26;65.76;94680.84;4997988;28;20206;-80
2022/07/26 04:55:19;;;;;;;0.30;0.30;;;20.80;80.00;;;21.25;66.42;94681.06;5027539;28;20276;-79
2022/07/26 04:57:47;;;;;;;0.40;0.40;;;20.80;80.00;;;21.26;66.37;94686.16;4997716;28;20216;-81
2022/07/26 05:00:20;;;;;;;0.40;0.40;;;20.80;80.00;;;21.28;66.12;94683.22;4994574;28;20212;-79
2022/07/26 05:02:56;;;;;;;0.40;0.40;;;20.80;80.10;;;21.31;65.81;94679.22;5021028;28;20294;-80
2022/07/26 05:05:26;;;;;;;0.40;0.40;;;20.90;80.20;;;21.34;65.82;94690.16;5013393;28;20714;-80
2022/07/26 05:07:58;;;;;;;0.40;0.40;;;20.90;80.20;;;21.38;66.67;94687.78;5020974;28;20262;-81
2022/07/26 05:10:36;;;;;;;0.40;0.40;;;20.90;80.50;;;21.39;66.08;94687.50;5033496;28;20592;-81
2022/07/26 05:13:05;;;;;;;0.40;0.40;;;20.90;80.90;;;21.43;65.79;94688.59;5017268;28;20207;-81
2022/07/26 05:15:35;;;;;;;0.30;0.30;;;20.90;80.50;;;21.42;65.88;94691.50;5033298;28;20221;-81
2022/07/26 05:18:06;;;;;;;0.38;0.38;;;20.90;80.50;;;21.43;66.00;94699.25;5012374;28;20220;-81
2022/07/26 05:20:36;;;;;;;0.40;0.40;;;20.90;80.50;;;21.46;66.04;94692.59;5020821;28;20220;-80
2022/07/26 05:23:03;;;;;;;0.40;0.40;;;20.90;81.60;;;21.50;65.67;94690.97;5028648;28;20192;-80
2022/07/26 05:25:31;;;;;;;0.38;0.38;;;20.90;80.90;;;21.52;66.22;94702.19;5012902;28;20229;-81
2022/07/26 05:27:58;;;;;;;0.30;0.30;;;21.00;81.00;;;21.56;66.18;94691.78;5002933;28;20279;-80
2022/07/26 05:30:26;;;;;;;0.30;0.30;;;21.00;81.10;;;21.56;65.66;94697.13;5014568;28;20291;-81
2022/07/26 05:32:53;;;;;;;0.35;0.35;;;21.00;80.70;;;21.57;65.71;94704.91;5016569;28;20196;-80
2022/07/26 05:35:20;;;;;;;0.40;0.40;;;21.00;80.40;;;21.57;65.55;94694.22;5033054;28;20258;-80
2022/07/26 05:37:47;;;;;;;0.40;0.40;;;21.00;80.40;;;21.57;66.04;94688.88;5010078;28;20208;-81
2022/07/26 05:40:15;;;;;;;0.40;0.40;;;21.00;80.50;;;21.62;66.02;94695.28;5012837;28;20232;-80
2022/07/26 05:42:42;;;;;;;0.32;0.32;;;21.10;80.50;;;21.63;65.95;94691.53;5013324;28;20289;-80
2022/07/26 05:45:10;;;;;;;0.40;0.40;;;21.10;80.50;;;21.69;65.95;94693.97;4996655;28;20210;-80
2022/07/26 05:47:37;;;;;;;0.50;0.50;;;21.10;80.60;;;21.71;65.82;94686.47;4997293;28;20242;-81
2022/07/26 05:50:06;;;;;;;0.38;0.38;;;21.20;80.30;;;21.78;65.80;94702.22;4996788;28;20198;-81
2022/07/26 05:52:34;;;;;;;0.40;0.40;;;21.20;80.50;;;21.83;65.70;94706.78;5013013;28;20298;-80
2022/07/26 05:55:01;;;;;;;0.32;0.32;;;21.30;80.40;;;21.88;65.31;94709.44;5012145;28;20585;-81
2022/07/26 05:57:29;;;;;;;0.30;0.30;;;21.40;80.30;;;21.91;65.40;94712.38;5001128;28;20307;-80
2022/07/26 05:59:56;;;;;;;0.30;0.30;;;21.40;80.20;;;22.00;65.04;94720.63;5013309;28;20664;-81
2022/07/26 06:02:23;;;;;;;0.40;0.40;;;21.50;80.00;;;22.01;64.89;94721.44;5008662;28;20333;-79
2022/07/26 06:04:50;;;;;;;0.30;0.30;;;21.50;79.90;;;22.09;65.28;94726.22;5028778;28;20198;-80
2022/07/26 06:07:18;;;;;;;0.40;0.40;;;21.60;80.00;;;22.14;65.24;94731.59;5018359;28;20240;-80
2022/07/26 06:09:45;;;;;;;0.30;0.30;;;21.60;79.90;;;22.20;64.96;94732.34;5014707;28;20241;-79
2022/07/26 06:12:12;;;;;;;0.40;0.40;;;21.70;80.00;;;22.27;65.30;94727.53;5033031;28;20227;-80
2022/07/26 06:14:39;;;;;;;0.40;0.40;;;21.70;80.20;;;22.35;65.09;94732.34;5031465;28;20569;-78
2022/07/26 06:17:06;;;;;;;0.30;0.30;;;21.70;80.40;;;22.43;65.64;94723.00;5011524;28;20224;-80
2022/07/26 06:19:34;;;;;;;0.50;0.50;;;21.90;80.70;;;22.50;64.56;94728.06;5020172;28;20653;-79
2022/07/26 06:22:01;;;;;;;0.40;0.40;;;21.90;80.00;;;22.58;64.89;94732.81;5008334;28;20486;-78
2022/07/26 06:24:28;;;;;;;0.40;0.40;;;22.00;79.90;;;22.65;64.74;94729.88;5019124;28;20322;-79
2022/07/26 06:26:56;;;;;;;0.30;0.30;;;22.10;79.80;;;22.68;64.06;94729.34;4999452;28;20780;-79
2022/07/26 06:29:31;;;;;;;0.30;0.30;;;22.10;79.30;;;22.70;64.23;94732.53;5023825;28;20224;-80
2022/07/26 06:32:01;;;;;;;0.28;0.28;;;22.20;79.40;;;22.74;64.18;94733.59;5011396;28;20685;-80
2022/07/26 06:34:28;;;;;;;0.30;0.30;;;22.20;78.90;;;22.78;63.79;94737.31;5006207;28;20228;-79
2022/07/26 06:36:55;;;;;;;0.30;0.30;;;22.20;78.80;;;22.85;64.05;94739.69;4987763;28;20556;-79
2022/07/26 06:39:23;;;;;;;0.50;0.50;;;22.30;79.20;;;22.91;63.75;94735.94;5002910;28;20281;-78
2022/07/26 06:41:50;;;;;;;0.40;0.40;;;22.40;78.80;;;22.96;63.78;94741.25;5018605;28;20213;-80
2022/07/26 06:44:21;;;;;;;0.40;0.40;;;22.40;78.70;;;23.01;63.35;94737.78;5005155;28;20287;-78
2022/07/26 06:46:48;;;;;;;0.40;0.40;;;22.50;78.30;;;23.06;63.24;94737.75;5007540;28;20216;-79
2022/07/26 06:49:15;;;;;;;0.40;0.40;;;22.60;78.20;;;23.14;63.51;94742.53;5018135;28;20248;-80
2022/07/26 06:51:48;;;;;;;0.38;0.38;;;22.60;78.10;;;23.21;63.48;94744.13;5017767;28;20234;-79
2022/07/26 06:54:15;;;;;;;0.40;0.40;;;22.70;78.20;;;23.28;63.16;94748.09;5019272;28;20659;-79
2022/07/26 06:56:42;;;;;;;0.38;0.38;;;22.70;78.00;;;23.36;63.35;94748.59;5002406;28;20232;-78
2022/07/26 06:59:09;;;;;;;0.30;0.30;;;22.80;78.10;;;23.42;62.94;94740.22;5008744;28;20203;-79
2022/07/26 07:01:37;;;;;;;0.30;0.30;;;22.90;77.90;;;23.47;62.71;94736.72;5015176;28;20231;-79
2022/07/26 07:04:24;;;;;;;0.30;0.30;;;22.90;77.60;;;23.54;63.04;94736.44;5012232;28;20692;-79
2022/07/26 07:06:51;;;;;;;0.43;0.43;;;23.00;77.80;;;23.69;62.83;94738.97;4982542;28;20352;-79
2022/07/26 07:09:18;;;;;;;0.30;0.30;;;23.20;77.80;;;23.83;62.90;94744.53;5018278;28;20215;-79
2022/07/26 07:11:48;;;;;;;0.30;0.30;;;23.20;77.80;;;23.92;62.58;94739.34;5006977;28;20546;-80
2022/07/26 07:14:25;;;;;;;0.40;0.40;;;23.40;77.60;;;24.02;61.89;94738.50;5019403;28;20188;-80
2022/07/26 07:16:52;;;;;;;0.30;0.30;;;23.50;77.20;;;24.13;61.70;94748.03;4997957;28;20513;-80
2022/07/26 07:19:19;;;;;;;0.20;0.20;;;23.60;76.80;;;24.19;61.68;94751.47;5019794;28;20669;-80
2022/07/26 07:21:46;;;;;;;0.30;0.30;;;23.70;76.60;;;24.28;61.88;94741.75;5002681;28;20240;-79
2022/07/26 07:24:14;;;;;;;0.20;0.20;;;23.80;76.60;;;24.39;61.16;94737.88;4998606;28;20200;-78
2022/07/26 07:26:41;;;;;;;0.40;0.40;;;23.90;76.40;;;24.52;61.62;94741.75;5006711;28;20224;-77
2022/07/26 07:29:13;;;;;;;0.30;0.30;;;24.00;76.60;;;24.65;61.05;94751.03;5002259;28;20300;-79
2022/07/26 07:31:40;;;;;;;0.30;0.30;;;24.10;76.30;;;24.76;61.08;94732.97;5005540;28;20679;-78
2022/07/26 07:34:17;;;;;;;0.30;0.30;;;24.30;76.30;;;24.91;61.06;94742.72;5015642;28;20205;-79
2022/07/26 07:36:45;;;;;;;0.30;0.30;;;24.40;76.10;;;24.98;60.51;94732.44;4987659;28;20241;-80
2022/07/26 07:39:13;;;;;;;0.30;0.30;;;24.50;75.70;;;25.08;60.55;94739.53;5001640;28;20210;-79
2022/07/26 07:41:47;;;;;;;0.25;0.25;;;24.60;75.60;;;25.16;59.81;94741.59;5021364;28;20213;-79
2022/07/26 07:44:15;;;;;;;0.40;0.40;;;24.70;74.70;;;25.22;59.59;94734.28;5003360;28;20665;-80
2022/07/26 07:46:42;;;;;;;0.30;0.30;;;24.80;74.90;;;25.22;58.95;94734.28;4999287;28;20305;-79
2022/07/26 07:49:09;;;;;;;0.20;0.20;;;24.90;74.20;;;25.24;59.19;94732.91;4994763;28;20255;-80
2022/07/26 07:51:37;;;;;;;0.30;0.30;;;24.90;74.00;;;25.22;59.26;94723.56;4995070;28;20217;-80
2022/07/26 07:54:04;;;;;;;0.32;0.32;;;24.90;74.00;;;25.26;59.00;94732.59;5011005;28;20218;-79
2022/07/26 07:56:33;;;;;;;0.30;0.30;;;25.00;73.70;;;25.27;58.52;94731.53;4995184;28;20699;-80
2022/07/26 07:59:00;;;;;;;0.50;0.50;;;25.00;73.50;;;25.28;58.87;94735.81;4995296;28;20260;-80
2022/07/26 08:01:27;;;;;;;0.40;0.40;;;25.00;73.60;;;25.32;58.74;94733.34;5027614;28;20253;-79
2022/07/26 08:04:07;;;;;;;0.20;0.20;;;25.00;73.60;;;25.35;58.63;94727.38;5011267;28;20243;-80
2022/07/26 08:06:35;;;;;;;0.22;0.22;;;25.00;73.50;;;25.40;59.17;94730.00;4995088;28;20215;-80
2022/07/26 08:09:03;;;;;;;0.30;0.30;;;25.10;73.90;;;25.48;58.67;94725.91;5003478;28;20225;-81
2022/07/26 08:11:33;;;;;;;0.30;0.30;;;25.10;73.50;;;25.57;58.87;94726.81;5000879;28;20241;-79
2022/07/26 08:14:01;;;;;;;0.38;0.38;;;25.10;73.40;;;25.63;58.44;94727.56;4995963;28;20437;-80
2022/07/26 08:16:28;;;;;;;0.30;0.30;;;25.20;73.60;;;25.68;57.99;94730.16;4997433;28;20320;-79
2022/07/26 08:18:55;;;;;;;0.20;0.20;;;25.30;73.10;;;25.78;58.15;94729.19;5009029;28;20285;-80
2022/07/26 08:21:34;;;;;;;0.30;0.30;;;25.40;73.10;;;25.87;58.36;94735.50;5025756;28;20700;-79
2022/07/26 08:24:02;;;;;;;0.22;0.22;;;25.40;73.30;;;25.98;58.81;94738.84;5007692;28;20203;-81
2022/07/26 08:26:29;;;;;;;0.30;0.30;;;25.60;73.20;;;26.05;57.61;94726.59;5011819;28;20217;-79
2022/07/26 08:28:56;;;;;;;0.30;0.30;;;25.60;72.70;;;26.11;57.33;94730.03;5004767;28;20218;-80
2022/07/26 08:31:27;;;;;;;0.20;0.20;;;25.70;72.20;;;26.11;56.60;94729.22;4990141;28;20214;-79
2022/07/26 08:33:55;;;;;;;0.30;0.30;;;25.80;71.40;;;26.15;56.67;94732.94;5001229;28;20220;-79
2022/07/26 08:36:23;;;;;;;0.30;0.30;;;25.90;71.30;;;26.22;56.65;94730.66;5009050;28;20237;-79
2022/07/26 08:38:58;;;;;;;0.30;0.30;;;25.90;71.30;;;26.27;55.70;94746.69;5008463;28;20210;-80
2022/07/26 08:41:25;;;;;;;0.30;0.30;;;26.10;70.50;;;26.30;55.84;94738.03;5000535;28;20219;-80
2022/07/26 08:43:52;;;;;;;0.30;0.30;;;26.10;70.60;;;26.37;56.46;94725.00;5024448;28;20694;-80
2022/07/26 08:46:23;;;;;;;0.30;0.30;;;26.10;70.90;;;26.47;56.33;94729.38;5007192;28;20219;-78
2022/07/26 08:48:56;;;;;;;0.30;0.30;;;26.20;70.90;;;26.60;56.63;94735.06;5006038;28;20702;-79
2022/07/26 08:51:25;;;;;;;0.30;0.30;;;26.30;70.90;;;26.68;55.87;94739.75;5005848;28;20307;-79
2022/07/26 08:53:59;;;;;;;0.20;0.20;;;26.40;70.60;;;26.71;54.32;94733.81;5020059;28;20203;-80
2022/07/26 08:56:36;;;;;;;0.30;0.30;;;26.50;69.40;;;26.76;55.07;94736.41;5023300;28;20223;-80
2022/07/26 08:59:16;;;;;;;0.20;0.20;;;26.50;69.70;;;26.76;54.76;94739.09;5005016;28;20223;-80
2022/07/26 09:02:02;;;;;;;0.22;0.22;;;26.60;69.00;;;26.80;54.04;94748.16;5003751;28;20227;-79
2022/07/26 09:04:36;;;;;;;0.20;0.20;;;26.60;68.40;;;26.86;54.56;94742.69;5006807;28;20270;-79
2022/07/26 09:07:18;;;;;;;0.20;0.20;;;26.70;68.40;;;26.93;54.84;94740.41;5023409;28;20253;-80
2022/07/26 09:10:10;;;;;;;0.28;0.28;;;26.70;69.30;;;27.07;54.54;94748.47;5024604;28;20269;-79
2022/07/26 09:12:39;;;;;;;0.20;0.20;;;26.80;69.30;;;27.18;54.79;94747.16;5014484;28;20639;-80
2022/07/26 09:15:17;;;;;;;0.30;0.30;;;26.90;68.90;;;27.32;54.96;94750.59;5004318;28;20271;-79
2022/07/26 09:17:51;;;;;;;0.30;0.30;;;27.00;69.00;;;27.41;54.50;94742.63;5010786;28;20304;-80
2022/07/26 09:20:24;;;;;;;0.30;0.30;;;27.10;69.00;;;27.53;53.69;94752.09;5020317;28;20203;-79
2022/07/26 09:23:03;;;;;;;0.25;0.25;;;27.20;68.80;;;27.48;51.97;94748.41;5022741;28;20217;-80
2022/07/26 09:25:40;;;;;;;0.30;0.30;;;27.30;67.20;;;27.44;52.36;94746.63;5023802;28;20221;-78
2022/07/26 09:28:23;;;;;;;0.20;0.20;;;27.30;67.40;;;27.33;51.20;94744.13;5009803;28;20843;-79
2022/07/26 09:30:57;;;;;;;0.30;0.30;;;27.30;66.60;;;27.25;51.61;94741.38;5000668;28;20230;-78
2022/07/26 09:33:25;;;;;;;0.30;0.30;;;27.30;66.30;;;27.24;52.40;94742.44;5002111;28;20261;-79
2022/07/26 09:36:05;;;;;;;0.20;0.20;;;27.30;67.00;;;27.24;52.80;94743.25;4986840;28;20230;-79
2022/07/26 09:38:46;;;;;;;0.30;0.30;;;27.20;67.20;;;27.29;52.38;94747.72;4976918;28;20744;-78
2022/07/26 09:41:31;;;;;;;0.30;0.30;;;27.20;66.80;;;27.32;52.58;94756.00;4987012;28;20221;-78
2022/07/26 09:44:21;;;;;;;0.30;0.30;;;27.20;66.80;;;27.28;52.21;94746.94;4991864;28;20211;-78
2022/07/26 09:46:57;;;;;;;0.30;0.30;;;27.20;66.80;;;27.29;52.49;94750.41;4993615;28;20232;-78
2022/07/26 09:49:26;;;;;;;0.30;0.30;;;27.10;66.80;;;27.26;53.03;94753.72;4990276;28;20215;-78
2022/07/26 09:52:19;;;;;;;0.30;0.30;;;27.10;67.10;;;27.20;52.67;94752.25;5024454;28;20231;-78
2022/07/26 09:54:48;;;;;;;0.30;0.30;;;27.00;67.20;;;27.22;53.36;94750.03;5005454;28;20207;-79
2022/07/26 09:57:18;;;;;;;0.30;0.30;;;27.00;67.50;;;27.33;53.16;94740.63;5003844;28;20232;-78
2022/07/26 09:59:46;;;;;;;0.30;0.30;;;27.00;67.90;;;27.46;52.68;94745.22;4988319;28;20222;-78
2022/07/26 10:02:14;;;;;;;0.30;0.30;;;27.10;68.10;;;27.62;52.99;94729.53;4995914;28;20304;-79
2022/07/26 10:04:42;;;;;;;0.30;0.30;;;27.30;68.00;;;27.80;52.09;94724.25;5002770;28;20233;-78
2022/07/26 10:07:09;;;;;;;0.30;0.30;;;27.40;67.60;;;28.01;51.99;94726.47;5006922;28;20225;-79
2022/07/26 10:09:48;;;;;;;0.30;0.30;;;27.60;66.90;;;28.19;51.59;94724.69;4999765;28;20236;-78
2022/07/26 10:12:16;;;;;;;0.22;0.22;;;27.70;66.40;;;28.29;50.98;94729.81;5012487;28;20277;-78
2022/07/26 10:14:46;;;;;;;0.30;0.30;;;27.90;66.40;;;28.34;49.28;94734.28;5007128;28;20207;-78
2022/07/26 10:17:28;;;;;;;0.30;0.30;;;28.00;64.60;;;28.23;47.73;94733.75;5004752;28;20214;-78
2022/07/26 10:20:31;;;;;;;0.30;0.30;;;28.10;63.80;;;28.06;48.17;94737.94;5017579;28;20581;-78
2022/07/26 10:22:59;;;;;;;0.20;0.20;;;28.00;63.10;;;27.86;49.03;94747.28;5024289;28;20214;-77
2022/07/26 10:25:29;;;;;;;0.30;0.30;;;27.90;64.70;;;27.56;49.00;94752.28;5007054;28;20201;-78
2022/07/26 10:27:57;;;;;;;0.30;0.30;;;27.70;64.20;;;27.15;49.65;94745.06;5020980;28;20215;-77
2022/07/26 10:30:26;;;;;;;0.30;0.30;;;27.40;64.20;;;26.66;50.40;94750.84;4991006;28;20312;-78
2022/07/26 10:33:07;;;;;;;0.30;0.30;;;27.00;64.50;;;26.13;51.23;94760.09;5002419;28;20202;-78